EYKA/KUN METAR and TAF weather

Enter ICAO airport designator
Station Type Date Time Source
EYKA METAR 2020/07/07 09:20 UTC NOAA

EYKA 070920Z 28007KT 9999 -SHRA SCT028CB BKN033 OVC054 16/11 Q1011


Station Type Date Time Source
EYKA Decoded METAR 2020/07/07 09:20 UTC NOAA

Kaunas, Lithuania (EYKA) 54-54N 023-55-12E
Jul 07, 2020 - 05:20 AM EDT / 2020.07.07 0920 UTC
Wind: from the W (280 degrees) at 8 MPH (7 KT):0
Visibility: greater than 7 mile(s):0
Sky conditions: overcast
Weather: light rain showers; Cumulonimbus clouds observed
Temperature: 60 F (16 C)
Dew Point: 51 F (11 C)
Relative Humidity: 72%
Pressure (altimeter): 29.85 in. Hg (1011 hPa)
ob: EYKA 070920Z 28007KT 9999 -SHRA SCT028CB BKN033 OVC054 16/11 Q1011
cycle: 9

Station Type Date Time Source
EYKA TAF 2020/07/07 06:03 UTC NOAA

TAF EYKA 070500Z 0706/0806 24012KT 8000 BKN025
TEMPO 0710/0718 29022KT BKN020CB

Example: see airport list